Time;durP1;ratioP1;P1;durP2;ratioP2;P2;SDS_P1;SDS_P2;PMS_P1;PMS_P2;Temp;Humidity;BMP_temperature;BMP_pressure;BME280_temperature;BME280_humidity;BME280_pressure;Samples;Min_cycle;Max_cycle;Signal;HPM_P1;HPM_P2
2022/05/31 00:00:16;;;;;;;;;;;;;;;25.36;54.63;98385.38;2085774;28;19933;-52
2022/05/31 00:01:17;;;;;;;;;;;;;;;25.37;54.32;98386.22;2087284;28;19935;-51
2022/05/31 00:02:23;;;;;;;;;;;;;;;25.38;54.49;98382.41;2083128;28;19943;-54
2022/05/31 00:03:23;;;;;;;;;;;;;;;25.35;54.36;98383.75;2083271;28;19933;-56
2022/05/31 00:04:25;;;;;;;;;;;;;;;25.35;54.54;98383.75;2073808;28;19947;-56
2022/05/31 00:05:26;;;;;;;;;;;;;;;25.35;54.52;98383.75;2077185;28;19943;-52
2022/05/31 00:06:27;;;;;;;;;;;;;;;25.37;54.39;98380.78;2085468;28;19929;-54
2022/05/31 00:07:28;;;;;;;;;;;;;;;25.36;54.53;98379.16;2080505;28;19963;-52
2022/05/31 00:08:29;;;;;;;;;;;;;;;25.36;54.40;98379.16;2082737;28;19939;-55
2022/05/31 00:09:30;;;;;;;;;;;;;;;25.35;54.69;98388.34;2085146;28;19932;-54
2022/05/31 00:10:32;;;;;;;;;;;;;;;25.36;54.64;98384.56;2081002;28;19966;-55
2022/05/31 00:11:33;;;;;;;;;;;;;;;25.36;54.62;98381.88;2082237;28;19940;-56
2022/05/31 00:12:35;;;;;;;;;;;;;;;25.35;54.62;98383.75;2084246;28;20019;-55
2022/05/31 00:13:35;;;;;;;;;;;;;;;25.35;54.62;98394.63;2080222;28;19964;-55
2022/05/31 00:14:38;;;;;;;;;;;;;;;25.36;54.44;98387.28;2080576;28;19928;-52
2022/05/31 00:15:40;;;;;;;;;;;;;;;25.36;54.41;98387.28;2084499;28;19925;-52
2022/05/31 00:16:41;;;;;;;;;;;;;;;25.35;54.57;98380.19;2081564;28;20019;-54
2022/05/31 00:17:42;;;;;;;;;;;;;;;25.35;54.76;98382.91;2085914;28;20063;-51
2022/05/31 00:18:43;;;;;;;;;;;;;;;25.35;54.75;98377.50;2082241;28;20096;-56
2022/05/31 00:19:44;;;;;;;;;;;;;;;25.35;54.82;98382.91;2084090;28;19929;-52
2022/05/31 00:20:46;;;;;;;;;;;;;;;25.35;54.78;98377.50;2080272;28;21313;-55
2022/05/31 00:21:49;;;;;;;;;;;;;;;25.35;54.75;98380.19;2083458;28;19932;-53
2022/05/31 00:22:51;;;;;;;;;;;;;;;25.35;54.69;98377.50;2084381;28;19932;-53
2022/05/31 00:23:52;;;;;;;;;;;;;;;25.35;54.67;98382.91;2083471;28;20572;-54
2022/05/31 00:24:54;;;;;;;;;;;;;;;25.35;54.47;98382.91;2080213;28;19932;-56
2022/05/31 00:25:54;;;;;;;;;;;;;;;25.34;54.54;98375.84;2083026;28;19964;-51
2022/05/31 00:26:56;;;;;;;;;;;;;;;25.34;54.70;98378.56;2085371;28;19981;-56
2022/05/31 00:27:56;;;;;;;;;;;;;;;25.34;54.55;98382.09;2081800;28;21533;-55
2022/05/31 00:28:58;;;;;;;;;;;;;;;25.34;54.51;98375.84;2084518;28;19939;-56
2022/05/31 00:29:58;;;;;;;;;;;;;;;25.34;54.77;98371.25;2084328;28;19932;-55
2022/05/31 00:31:03;;;;;;;;;;;;;;;25.32;54.48;98376.09;2086048;28;19924;-55
2022/05/31 00:32:04;;;;;;;;;;;;;;;25.32;54.61;98370.66;2084389;28;19924;-54
2022/05/31 00:33:07;;;;;;;;;;;;;;;25.34;54.92;98370.44;2084760;28;20306;-53
2022/05/31 00:34:08;;;;;;;;;;;;;;;25.34;54.55;98378.56;2085657;28;20026;-55
2022/05/31 00:35:11;;;;;;;;;;;;;;;25.32;54.71;98376.09;2086248;28;20252;-56
2022/05/31 00:36:11;;;;;;;;;;;;;;;25.31;54.88;98371.75;2078761;28;19924;-56
2022/05/31 00:37:13;;;;;;;;;;;;;;;25.32;54.58;98372.56;2078938;28;20022;-54
2022/05/31 00:38:14;;;;;;;;;;;;;;;25.33;54.70;98371.50;2082487;28;20302;-56
2022/05/31 00:39:16;;;;;;;;;;;;;;;25.32;54.71;98370.66;2085242;28;20058;-56
2022/05/31 00:40:18;;;;;;;;;;;;;;;25.34;54.85;98370.44;2085835;28;19939;-55
2022/05/31 00:41:26;;;;;;;;;;;;;;;25.32;54.88;98369.84;2087592;28;19925;-55
2022/05/31 00:42:26;;;;;;;;;;;;;;;25.31;54.88;98373.66;2084132;28;19970;-55
2022/05/31 00:43:28;;;;;;;;;;;;;;;25.32;54.64;98378.00;2082504;28;20459;-56
2022/05/31 00:44:29;;;;;;;;;;;;;;;25.31;54.59;98363.59;2082035;28;19955;-56
2022/05/31 00:45:33;;;;;;;;;;;;;;;25.31;54.78;98371.75;2084484;28;19937;-55
2022/05/31 00:46:40;;;;;;;;;;;;;;;25.32;54.94;98369.84;2085383;28;19932;-56
2022/05/31 00:47:42;;;;;;;;;;;;;;;25.32;54.83;98372.56;2084093;28;19989;-56
2022/05/31 00:48:47;;;;;;;;;;;;;;;25.30;54.83;98370.13;2084602;28;19929;-54
2022/05/31 00:49:49;;;;;;;;;;;;;;;25.31;54.75;98370.94;2080825;28;20333;-54
2022/05/31 00:50:51;;;;;;;;;;;;;;;25.32;54.86;98372.56;2081837;28;19935;-55
2022/05/31 00:51:55;;;;;;;;;;;;;;;25.32;54.88;98369.84;2081602;28;19925;-52
2022/05/31 00:52:58;;;;;;;;;;;;;;;25.31;54.59;98373.66;2080675;28;20481;-55
2022/05/31 00:54:02;;;;;;;;;;;;;;;25.32;54.57;98375.28;2079234;28;20006;-52
2022/05/31 00:55:04;;;;;;;;;;;;;;;25.30;54.68;98372.03;2080681;28;20679;-51
2022/05/31 00:56:08;;;;;;;;;;;;;;;25.32;54.92;98380.72;2081851;28;20948;-54
2022/05/31 00:57:10;;;;;;;;;;;;;;;25.31;54.68;98376.38;2083715;28;21127;-55
2022/05/31 00:58:14;;;;;;;;;;;;;;;25.31;54.55;98381.81;2081778;28;19924;-54
2022/05/31 00:59:15;;;;;;;;;;;;;;;25.31;54.70;98370.94;2085793;28;19968;-51
2022/05/31 01:00:17;;;;;;;;;;;;;;;25.32;54.67;98375.28;2079895;28;19928;-53
2022/05/31 01:01:18;;;;;;;;;;;;;;;25.31;54.93;98370.94;2082919;28;19939;-55
2022/05/31 01:02:22;;;;;;;;;;;;;;;25.31;54.89;98371.75;2085830;28;20019;-53
2022/05/31 01:03:23;;;;;;;;;;;;;;;25.30;54.84;98375.56;2083267;28;19960;-56
2022/05/31 01:04:27;;;;;;;;;;;;;;;25.30;54.98;98370.13;2080145;28;19960;-54
2022/05/31 01:05:28;;;;;;;;;;;;;;;25.31;54.78;98365.50;2081891;28;19939;-53
2022/05/31 01:06:29;;;;;;;;;;;;;;;25.30;54.67;98372.03;2073000;28;19964;-55
2022/05/31 01:07:31;;;;;;;;;;;;;;;25.30;54.94;98369.31;2074235;28;20413;-55
2022/05/31 01:08:32;;;;;;;;;;;;;;;25.31;54.65;98368.22;2080793;28;19939;-55
2022/05/31 01:09:33;;;;;;;;;;;;;;;25.30;54.72;98367.41;2082686;28;19932;-54
2022/05/31 01:10:34;;;;;;;;;;;;;;;25.30;54.84;98372.03;2079285;28;19944;-54
2022/05/31 01:11:38;;;;;;;;;;;;;;;25.30;54.79;98370.13;2081201;28;19931;-54
2022/05/31 01:12:42;;;;;;;;;;;;;;;25.30;54.71;98375.56;2079277;28;21019;-55
2022/05/31 01:13:43;;;;;;;;;;;;;;;25.29;55.08;98373.91;2080924;28;19939;-55
2022/05/31 01:14:44;;;;;;;;;;;;;;;25.30;55.06;98378.28;2081213;28;19947;-55
2022/05/31 01:15:47;;;;;;;;;;;;;;;25.30;54.91;98377.44;2085905;28;20002;-53
2022/05/31 01:16:54;;;;;;;;;;;;;;;25.30;55.00;98372.03;2081995;28;19932;-55
2022/05/31 01:17:57;;;;;;;;;;;;;;;25.29;55.13;98381.22;2083514;28;19935;-56
2022/05/31 01:18:58;;;;;;;;;;;;;;;25.30;54.80;98374.75;2081243;28;19935;-54
2022/05/31 01:20:03;;;;;;;;;;;;;;;25.30;55.21;98375.56;2085056;28;20587;-56
2022/05/31 01:21:05;;;;;;;;;;;;;;;25.29;55.10;98371.19;2083302;28;19955;-54
2022/05/31 01:22:06;;;;;;;;;;;;;;;25.30;55.25;98374.75;2081187;28;19924;-55
2022/05/31 01:23:10;;;;;;;;;;;;;;;25.29;55.23;98373.91;2079702;28;20025;-52
2022/05/31 01:24:15;;;;;;;;;;;;;;;25.29;54.92;98378.50;2083028;28;20661;-55
2022/05/31 01:25:36;;;;;;;;;;;;;;;25.27;54.96;98378.78;2086522;28;19968;-55
2022/05/31 01:26:41;;;;;;;;;;;;;;;25.29;54.95;98378.50;2079629;28;19986;-55
2022/05/31 01:27:46;;;;;;;;;;;;;;;25.27;54.93;98381.50;2080259;28;20515;-55
2022/05/31 01:28:54;;;;;;;;;;;;;;;25.29;55.07;98378.50;2081418;28;20031;-53
2022/05/31 01:29:55;;;;;;;;;;;;;;;25.27;55.11;98381.50;2083703;28;20264;-52
2022/05/31 01:30:58;;;;;;;;;;;;;;;25.28;54.91;98379.59;2081588;28;20024;-56
2022/05/31 01:32:00;;;;;;;;;;;;;;;25.28;55.23;98379.59;2082708;28;20298;-52
2022/05/31 01:33:04;;;;;;;;;;;;;;;25.27;55.35;98376.06;2083505;28;19932;-52
2022/05/31 01:34:09;;;;;;;;;;;;;;;25.28;55.38;98382.31;2084997;28;20413;-53
2022/05/31 01:35:17;;;;;;;;;;;;;;;25.27;55.22;98378.78;2083032;28;19933;-51
2022/05/31 01:36:19;;;;;;;;;;;;;;;25.28;55.28;98377.69;2085172;28;19936;-53
2022/05/31 01:37:22;;;;;;;;;;;;;;;25.28;54.93;98379.59;2087653;28;20747;-54
2022/05/31 01:38:26;;;;;;;;;;;;;;;25.28;55.23;98376.88;2076639;28;19959;-55
2022/05/31 01:39:31;;;;;;;;;;;;;;;25.26;55.42;98368.16;2085802;28;20664;-54
2022/05/31 01:40:37;;;;;;;;;;;;;;;25.26;55.24;98371.69;2082784;28;19975;-53
2022/05/31 01:41:41;;;;;;;;;;;;;;;25.28;54.92;98374.16;2083339;28;19971;-54
2022/05/31 01:42:44;;;;;;;;;;;;;;;25.27;55.31;98373.34;2080597;28;19928;-54
2022/05/31 01:43:46;;;;;;;;;;;;;;;25.26;55.30;98374.41;2086205;28;20015;-55
2022/05/31 01:44:51;;;;;;;;;;;;;;;25.26;54.90;98376.31;2085794;28;20466;-53
2022/05/31 01:46:08;;;;;;;;;;;;;;;25.27;55.37;98369.78;2082222;28;19932;-53
2022/05/31 01:47:09;;;;;;;;;;;;;;;25.26;55.31;98381.72;2081773;28;19928;-53
2022/05/31 01:48:11;;;;;;;;;;;;;;;25.27;55.15;98367.06;2089026;28;20157;-53
2022/05/31 01:49:13;;;;;;;;;;;;;;;25.27;55.01;98378.78;2082641;28;20548;-52
2022/05/31 01:50:18;;;;;;;;;;;;;;;25.26;55.32;98379.03;2082383;28;19928;-54
2022/05/31 01:51:19;;;;;;;;;;;;;;;25.25;55.36;98370.06;2084718;28;19935;-52
2022/05/31 01:52:21;;;;;;;;;;;;;;;25.26;55.31;98370.88;2086234;28;20367;-55
2022/05/31 01:53:21;;;;;;;;;;;;;;;25.26;55.16;98368.97;2086006;28;19975;-54
2022/05/31 01:54:23;;;;;;;;;;;;;;;25.25;55.04;98370.06;2082777;28;19928;-53
2022/05/31 01:55:24;;;;;;;;;;;;;;;25.26;55.30;98371.69;2082277;28;20015;-55
2022/05/31 01:56:26;;;;;;;;;;;;;;;25.25;55.04;98374.69;2081393;28;19963;-54
2022/05/31 01:57:28;;;;;;;;;;;;;;;25.24;55.37;98367.59;2086281;28;19929;-56
2022/05/31 01:58:33;;;;;;;;;;;;;;;25.24;55.18;98364.88;2081907;28;19925;-55
2022/05/31 01:59:35;;;;;;;;;;;;;;;25.24;55.33;98376.56;2083778;28;19929;-54
2022/05/31 02:00:37;;;;;;;;;;;;;;;25.24;55.25;98375.72;2081761;28;20007;-54
2022/05/31 02:01:40;;;;;;;;;;;;;;;25.24;55.04;98379.28;2083216;28;19925;-54
2022/05/31 02:02:40;;;;;;;;;;;;;;;25.24;55.35;98376.56;2084284;28;20023;-54
2022/05/31 02:03:45;;;;;;;;;;;;;;;25.24;55.38;98375.72;2082441;28;20367;-51
2022/05/31 02:04:45;;;;;;;;;;;;;;;25.25;55.22;98377.38;2087883;28;19928;-55
2022/05/31 02:05:49;;;;;;;;;;;;;;;25.23;55.18;98380.34;2086146;28;20280;-56
2022/05/31 02:07:10;;;;;;;;;;;;;;;25.23;55.30;98383.06;2084509;28;19925;-55
2022/05/31 02:08:12;;;;;;;;;;;;;;;25.24;55.15;98381.16;2079476;28;20425;-55
2022/05/31 02:09:14;;;;;;;;;;;;;;;25.24;55.03;98378.44;2082235;28;19928;-54
2022/05/31 02:10:15;;;;;;;;;;;;;;;25.23;55.33;98374.91;2079108;28;20923;-55
2022/05/31 02:11:16;;;;;;;;;;;;;;;25.23;55.26;98374.91;2080122;28;19964;-50
2022/05/31 02:12:18;;;;;;;;;;;;;;;25.23;55.05;98382.25;2079282;28;19929;-55
2022/05/31 02:13:20;;;;;;;;;;;;;;;25.23;55.07;98380.34;2081031;28;19928;-51
2022/05/31 02:14:20;;;;;;;;;;;;;;;25.24;55.23;98378.44;2084886;28;19932;-55
2022/05/31 02:15:23;;;;;;;;;;;;;;;25.23;54.97;98380.34;2080801;28;19929;-53
2022/05/31 02:16:23;;;;;;;;;;;;;;;25.20;55.16;98378.13;2086604;28;20845;-54
2022/05/31 02:17:25;;;;;;;;;;;;;;;25.22;54.98;98378.72;2081272;28;19925;-52
2022/05/31 02:19:15;;;;;;;;;;;;;;;25.24;54.99;98386.59;2081722;28;19937;-54
2022/05/31 02:19:48;;;;;;;;;;;;;;;25.23;55.04;98385.78;2083984;28;19940;-53
2022/05/31 02:20:50;;;;;;;;;;;;;;;25.21;55.21;98379.78;2083384;28;19932;-55
2022/05/31 02:21:53;;;;;;;;;;;;;;;25.22;55.16;98383.31;2080599;28;20005;-54
2022/05/31 02:22:55;;;;;;;;;;;;;;;25.22;54.88;98384.16;2082384;28;21195;-52
2022/05/31 02:23:55;;;;;;;;;;;;;;;25.22;54.98;98386.03;2081420;28;20020;-56
2022/05/31 02:24:57;;;;;;;;;;;;;;;25.22;55.19;98384.16;2081202;28;19929;-54
2022/05/31 02:25:57;;;;;;;;;;;;;;;25.22;55.00;98384.16;2079372;28;20012;-56
2022/05/31 02:26:59;;;;;;;;;;;;;;;25.21;55.16;98377.06;2083567;28;20780;-53
2022/05/31 02:28:00;;;;;;;;;;;;;;;25.21;55.03;98381.66;2081154;28;20006;-55
2022/05/31 02:29:02;;;;;;;;;;;;;;;25.21;55.02;98387.09;2080564;28;20452;-54
2022/05/31 02:30:03;;;;;;;;;;;;;;;25.22;55.06;98380.63;2085779;28;19993;-55
2022/05/31 02:31:04;;;;;;;;;;;;;;;25.21;55.06;98381.66;2080256;28;19940;-52
2022/05/31 02:32:07;;;;;;;;;;;;;;;25.21;55.11;98376.25;2086126;28;20051;-56
2022/05/31 02:33:08;;;;;;;;;;;;;;;25.20;55.05;98380.84;2084472;28;19932;-53
2022/05/31 02:34:10;;;;;;;;;;;;;;;25.19;55.29;98385.47;2087321;28;19968;-52
2022/05/31 02:35:12;;;;;;;;;;;;;;;25.20;55.19;98380.84;2081349;28;20012;-53
2022/05/31 02:36:14;;;;;;;;;;;;;;;25.20;55.36;98383.56;2081554;28;19934;-55
2022/05/31 02:37:15;;;;;;;;;;;;;;;25.18;55.00;98381.13;2082385;28;19977;-54
2022/05/31 02:38:16;;;;;;;;;;;;;;;25.18;55.09;98375.69;2079123;28;19939;-55
2022/05/31 02:39:18;;;;;;;;;;;;;;;25.18;55.06;98374.84;2083149;28;19972;-54
2022/05/31 02:40:19;;;;;;;;;;;;;;;25.18;55.40;98378.41;2083558;28;19929;-56
2022/05/31 02:41:20;;;;;;;;;;;;;;;25.18;55.47;98375.69;2084969;28;19968;-51
2022/05/31 02:42:22;;;;;;;;;;;;;;;25.18;55.36;98375.69;2078948;28;19929;-55
2022/05/31 02:43:22;;;;;;;;;;;;;;;25.18;55.06;98372.97;2084702;28;20196;-55
2022/05/31 02:44:24;;;;;;;;;;;;;;;25.19;55.18;98374.59;2082959;28;20484;-55
2022/05/31 02:45:25;;;;;;;;;;;;;;;25.19;55.06;98374.59;2081132;28;19932;-55
2022/05/31 02:46:27;;;;;;;;;;;;;;;25.19;55.11;98368.38;2078386;28;21541;-54
2022/05/31 02:47:28;;;;;;;;;;;;;;;25.17;55.04;98371.31;2088255;28;20321;-52
2022/05/31 02:48:29;;;;;;;;;;;;;;;25.19;55.18;98376.50;2084177;28;20421;-55
2022/05/31 02:49:31;;;;;;;;;;;;;;;25.18;55.35;98378.41;2085503;28;21176;-53
2022/05/31 02:50:32;;;;;;;;;;;;;;;25.17;55.33;98379.47;2084704;28;20398;-53
2022/05/31 02:51:36;;;;;;;;;;;;;;;25.18;55.09;98377.56;2084478;28;19929;-51
2022/05/31 02:52:36;;;;;;;;;;;;;;;25.18;55.32;98381.13;2084812;28;19978;-54
2022/05/31 02:53:38;;;;;;;;;;;;;;;25.18;55.36;98374.84;2085221;28;19983;-50
2022/05/31 02:54:39;;;;;;;;;;;;;;;25.18;55.11;98372.13;2086408;28;20075;-51
2022/05/31 02:55:40;;;;;;;;;;;;;;;25.18;55.36;98372.97;2079590;28;19939;-51
2022/05/31 02:56:41;;;;;;;;;;;;;;;25.16;55.08;98371.59;2078705;28;19928;-54
2022/05/31 02:57:42;;;;;;;;;;;;;;;25.16;55.06;98369.69;2084891;28;20492;-55
2022/05/31 02:58:44;;;;;;;;;;;;;;;25.16;55.24;98369.69;2083155;28;20142;-51
2022/05/31 02:59:46;;;;;;;;;;;;;;;25.15;55.10;98370.75;2085531;28;20442;-54
2022/05/31 03:00:46;;;;;;;;;;;;;;;25.16;55.37;98366.97;2083073;28;19928;-53
2022/05/31 03:01:49;;;;;;;;;;;;;;;25.16;55.14;98366.16;2078098;28;19928;-54
2022/05/31 03:02:50;;;;;;;;;;;;;;;25.16;55.36;98369.69;2084121;28;19983;-53
2022/05/31 03:03:51;;;;;;;;;;;;;;;25.15;55.41;98359.88;2080590;28;19944;-55
2022/05/31 03:04:53;;;;;;;;;;;;;;;25.16;55.13;98371.59;2085143;28;20383;-55
2022/05/31 03:05:53;;;;;;;;;;;;;;;25.16;55.09;98368.88;2081787;28;20342;-53
2022/05/31 03:07:01;;;;;;;;;;;;;;;25.15;55.29;98372.66;2081949;28;20007;-52
2022/05/31 03:08:03;;;;;;;;;;;;;;;25.16;55.37;98382.44;2083880;28;19929;-50
2022/05/31 03:09:05;;;;;;;;;;;;;;;25.16;55.30;98379.72;2081680;28;20494;-52
2022/05/31 03:10:06;;;;;;;;;;;;;;;25.15;55.38;98378.88;2085076;28;19929;-55
2022/05/31 03:11:09;;;;;;;;;;;;;;;25.14;55.16;98379.97;2085629;28;20022;-55
2022/05/31 03:12:13;;;;;;;;;;;;;;;25.15;55.40;98378.88;2081638;28;19981;-53
2022/05/31 03:13:17;;;;;;;;;;;;;;;25.15;55.23;98378.06;2082255;28;21929;-52
2022/05/31 03:14:20;;;;;;;;;;;;;;;25.15;55.34;98381.59;2082438;28;19928;-51
2022/05/31 03:15:23;;;;;;;;;;;;;;;25.15;55.30;98384.31;2079899;28;19925;-56
2022/05/31 03:16:23;;;;;;;;;;;;;;;25.15;55.39;98391.63;2082318;28;19972;-55
2022/05/31 03:17:28;;;;;;;;;;;;;;;25.14;55.37;98382.69;2084647;28;20758;-53
2022/05/31 03:18:33;;;;;;;;;;;;;;;25.16;55.47;98387.88;2081584;28;20588;-55
2022/05/31 03:19:38;;;;;;;;;;;;;;;25.14;55.24;98398.97;2082758;28;19935;-54
2022/05/31 03:20:40;;;;;;;;;;;;;;;25.14;55.46;98393.53;2079019;28;19939;-56
2022/05/31 03:21:44;;;;;;;;;;;;;;;25.14;55.33;98398.97;2078802;28;20503;-55
2022/05/31 03:22:48;;;;;;;;;;;;;;;25.14;55.41;98396.25;2082516;28;20817;-55
2022/05/31 03:23:53;;;;;;;;;;;;;;;25.13;55.28;98407.31;2079099;28;19982;-55
2022/05/31 03:24:55;;;;;;;;;;;;;;;25.13;55.32;98400.03;2082516;28;20013;-55
2022/05/31 03:25:58;;;;;;;;;;;;;;;25.14;55.25;98398.97;2085479;28;19924;-54
2022/05/31 03:27:00;;;;;;;;;;;;;;;25.13;55.13;98400.03;2082481;28;20509;-51
2022/05/31 03:28:03;;;;;;;;;;;;;;;25.13;55.36;98401.88;2081008;28;19939;-55
2022/05/31 03:29:05;;;;;;;;;;;;;;;25.14;55.49;98407.09;2080876;28;19933;-55
2022/05/31 03:30:07;;;;;;;;;;;;;;;25.13;55.08;98397.31;2084485;28;19932;-55
2022/05/31 03:31:08;;;;;;;;;;;;;;;25.14;55.43;98406.25;2081813;28;19929;-53
2022/05/31 03:32:10;;;;;;;;;;;;;;;25.13;55.48;98407.31;2084673;28;21132;-53
2022/05/31 03:33:11;;;;;;;;;;;;;;;25.12;55.17;98409.22;2084001;28;19952;-53
2022/05/31 03:34:13;;;;;;;;;;;;;;;25.13;55.18;98405.44;2082145;28;19929;-51
2022/05/31 03:35:14;;;;;;;;;;;;;;;25.12;55.35;98411.13;2070709;28;23385;-55
2022/05/31 03:36:16;;;;;;;;;;;;;;;25.11;55.22;98401.34;2076011;28;20883;-53
2022/05/31 03:37:18;;;;;;;;;;;;;;;25.12;55.29;98403.78;2078647;28;19929;-53
2022/05/31 03:38:20;;;;;;;;;;;;;;;25.13;55.47;98408.16;2083409;28;19933;-56
2022/05/31 03:39:21;;;;;;;;;;;;;;;25.12;55.19;98398.34;2081646;28;20007;-52
2022/05/31 03:41:42;;;;;;;;;;;;;;;25.10;55.23;98403.25;2073463;28;20030;-52
2022/05/31 03:42:42;;;;;;;;;;;;;;;25.11;55.49;98407.59;2084983;28;19928;-55
2022/05/31 03:43:44;;;;;;;;;;;;;;;25.12;55.36;98408.41;2079877;28;20407;-55
2022/05/31 03:44:44;;;;;;;;;;;;;;;25.11;55.49;98409.47;2082767;28;19948;-52
2022/05/31 03:45:46;;;;;;;;;;;;;;;25.11;55.51;98410.31;2084561;28;19929;-53
2022/05/31 03:46:48;;;;;;;;;;;;;;;25.11;55.41;98406.78;2083999;28;20326;-56
2022/05/31 03:47:48;;;;;;;;;;;;;;;25.11;55.57;98406.78;2080702;28;20850;-53
2022/05/31 03:48:50;;;;;;;;;;;;;;;25.10;55.44;98408.66;2083571;28;20439;-54
2022/05/31 03:49:51;;;;;;;;;;;;;;;25.10;55.46;98408.66;2078769;28;20417;-53
2022/05/31 03:50:59;;;;;;;;;;;;;;;25.09;55.43;98411.63;2084743;28;19928;-54
2022/05/31 03:52:01;;;;;;;;;;;;;;;25.09;55.53;98420.56;2079019;28;19964;-55
2022/05/31 03:53:02;;;;;;;;;;;;;;;25.11;55.22;98420.34;2086253;28;20910;-54
2022/05/31 03:54:05;;;;;;;;;;;;;;;25.10;55.59;98414.09;2085365;28;19989;-55
2022/05/31 03:55:06;;;;;;;;;;;;;;;25.11;55.18;98418.44;2082853;28;19932;-52
2022/05/31 03:56:10;;;;;;;;;;;;;;;25.10;55.42;98419.53;2086259;28;19935;-51
2022/05/31 03:57:13;;;;;;;;;;;;;;;25.09;55.49;98417.88;2080928;28;19979;-52
2022/05/31 03:58:15;;;;;;;;;;;;;;;25.10;55.19;98415.97;2075669;28;19939;-55
2022/05/31 03:59:15;;;;;;;;;;;;;;;25.09;55.27;98420.56;2084141;28;19928;-54
2022/05/31 04:00:17;;;;;;;;;;;;;;;25.09;55.36;98415.16;2084741;28;20159;-52
2022/05/31 04:01:18;;;;;;;;;;;;;;;25.09;55.46;98422.47;2083434;28;19928;-55
2022/05/31 04:02:20;;;;;;;;;;;;;;;25.10;55.42;98424.09;2082493;28;20442;-52
2022/05/31 04:03:21;;;;;;;;;;;;;;;25.09;55.36;98417.88;2081691;28;19931;-54
2022/05/31 04:04:22;;;;;;;;;;;;;;;25.09;55.40;98417.88;2082380;28;19991;-52
2022/05/31 04:05:23;;;;;;;;;;;;;;;25.08;55.54;98415.41;2078896;28;19933;-55
2022/05/31 04:06:25;;;;;;;;;;;;;;;25.08;55.52;98416.22;2080472;28;19939;-55
2022/05/31 04:07:25;;;;;;;;;;;;;;;25.08;55.40;98410.81;2081095;28;19925;-53
2022/05/31 04:08:27;;;;;;;;;;;;;;;25.08;55.50;98410.81;2079355;28;20541;-52
2022/05/31 04:09:29;;;;;;;;;;;;;;;25.08;55.27;98410.81;2084341;28;19967;-53
2022/05/31 04:10:31;;;;;;;;;;;;;;;25.08;55.50;98413.50;2085259;28;19982;-53
2022/05/31 04:11:32;;;;;;;;;;;;;;;25.07;55.49;98411.84;2082105;28;19928;-54
2022/05/31 04:12:34;;;;;;;;;;;;;;;25.06;55.29;98412.13;2078633;28;19928;-56
2022/05/31 04:13:35;;;;;;;;;;;;;;;25.07;55.47;98413.75;2083466;28;19932;-51
2022/05/31 04:14:36;;;;;;;;;;;;;;;25.08;55.44;98412.69;2083217;28;19929;-53
2022/05/31 04:15:37;;;;;;;;;;;;;;;25.07;55.51;98413.75;2082111;28;19925;-57
2022/05/31 04:16:39;;;;;;;;;;;;;;;25.07;55.46;98417.28;2075896;28;19936;-56
2022/05/31 04:17:40;;;;;;;;;;;;;;;25.07;55.45;98414.56;2080813;28;19925;-52
2022/05/31 04:18:42;;;;;;;;;;;;;;;25.08;55.29;98420.84;2085434;28;20399;-53
2022/05/31 04:19:42;;;;;;;;;;;;;;;25.07;55.08;98425.44;2084652;28;19933;-53
2022/05/31 04:20:44;;;;;;;;;;;;;;;25.09;55.31;98417.88;2085851;28;21075;-55
2022/05/31 04:21:44;;;;;;;;;;;;;;;25.07;55.34;98420.00;2080626;28;19980;-56
2022/05/31 04:22:46;;;;;;;;;;;;;;;25.08;55.39;98415.41;2079467;28;19932;-54
2022/05/31 04:23:59;;;;;;;;;;;;;;;25.07;55.36;98419.19;2080427;28;19925;-56
2022/05/31 04:25:01;;;;;;;;;;;;;;;25.06;55.15;98429.22;2081831;28;20283;-56
2022/05/31 04:26:03;;;;;;;;;;;;;;;25.07;55.12;98419.19;2084996;28;20418;-52
2022/05/31 04:27:05;;;;;;;;;;;;;;;25.05;55.30;98414.03;2082970;28;19933;-56
2022/05/31 04:28:06;;;;;;;;;;;;;;;25.05;55.14;98422.16;2084558;28;19968;-50
2022/05/31 04:29:07;;;;;;;;;;;;;;;25.06;55.41;98422.97;2084964;28;19939;-53
2022/05/31 04:30:08;;;;;;;;;;;;;;;25.06;55.08;98429.22;2079485;28;19971;-56
2022/05/31 04:31:10;;;;;;;;;;;;;;;25.07;55.44;98430.84;2081773;28;19933;-56
2022/05/31 04:32:11;;;;;;;;;;;;;;;25.06;55.14;98429.22;2080765;28;20967;-50
2022/05/31 04:33:13;;;;;;;;;;;;;;;25.07;55.15;98419.19;2081885;28;19976;-55
2022/05/31 04:34:14;;;;;;;;;;;;;;;25.05;55.34;98421.34;2084683;28;20808;-56
2022/05/31 04:35:15;;;;;;;;;;;;;;;25.05;55.41;98429.50;2083223;28;19928;-54
2022/05/31 04:36:18;;;;;;;;;;;;;;;25.05;55.40;98427.59;2080408;28;19943;-55
2022/05/31 04:37:18;;;;;;;;;;;;;;;25.05;55.21;98427.59;2084368;28;19929;-53
2022/05/31 04:38:20;;;;;;;;;;;;;;;25.05;55.15;98433.03;2084188;28;19934;-53
2022/05/31 04:39:20;;;;;;;;;;;;;;;25.04;55.41;98416.97;2083327;28;19925;-55
2022/05/31 04:40:24;;;;;;;;;;;;;;;25.04;55.24;98425.94;2078320;28;19931;-53
2022/05/31 04:41:27;;;;;;;;;;;;;;;25.04;55.10;98425.13;2087724;28;19928;-56
2022/05/31 04:42:28;;;;;;;;;;;;;;;25.04;55.31;98425.94;2086237;28;19924;-53
2022/05/31 04:43:29;;;;;;;;;;;;;;;25.04;55.28;98425.94;2086851;28;19932;-56
2022/05/31 04:44:31;;;;;;;;;;;;;;;25.05;55.30;98422.16;2081894;28;19979;-53
2022/05/31 04:45:32;;;;;;;;;;;;;;;25.04;55.30;98431.34;2085035;28;19940;-55
2022/05/31 04:46:34;;;;;;;;;;;;;;;25.04;55.47;98425.13;2078590;28;20393;-55
2022/05/31 04:47:35;;;;;;;;;;;;;;;25.03;54.98;98418.88;2087577;28;22922;-57
2022/05/31 04:48:37;;;;;;;;;;;;;;;25.03;55.43;98423.47;2087255;28;20023;-55
2022/05/31 04:49:37;;;;;;;;;;;;;;;25.04;55.50;98425.94;2089888;28;19928;-53
2022/05/31 04:50:39;;;;;;;;;;;;;;;25.02;55.13;98428.09;2086532;28;20022;-50
2022/05/31 04:51:40;;;;;;;;;;;;;;;25.03;55.20;98418.06;2086556;28;20513;-55
2022/05/31 04:52:41;;;;;;;;;;;;;;;25.02;55.42;98417.25;2081807;28;19963;-55
2022/05/31 04:53:43;;;;;;;;;;;;;;;25.02;55.25;98414.53;2083662;28;19924;-54
2022/05/31 04:54:43;;;;;;;;;;;;;;;25.02;55.29;98427.25;2080279;28;19933;-55
2022/05/31 04:55:46;;;;;;;;;;;;;;;25.02;55.55;98422.66;2079709;28;19939;-52
2022/05/31 04:56:47;;;;;;;;;;;;;;;25.03;55.25;98418.06;2083882;28;19940;-51
2022/05/31 04:57:48;;;;;;;;;;;;;;;25.03;55.29;98418.88;2082303;28;19929;-57
2022/05/31 04:58:51;;;;;;;;;;;;;;;25.03;55.38;98409.91;2080656;28;19928;-51
2022/05/31 04:59:53;;;;;;;;;;;;;;;25.02;55.08;98421.81;2084056;28;19964;-56
2022/05/31 05:00:53;;;;;;;;;;;;;;;25.02;55.40;98409.09;2082219;28;20427;-56
2022/05/31 05:01:55;;;;;;;;;;;;;;;25.01;55.23;98412.88;2080354;28;19939;-57
2022/05/31 05:02:56;;;;;;;;;;;;;;;25.02;55.28;98422.66;2085025;28;19929;-53
2022/05/31 05:03:57;;;;;;;;;;;;;;;25.00;55.34;98411.25;2087871;28;20311;-53
2022/05/31 05:04:58;;;;;;;;;;;;;;;25.00;55.44;98419.38;2080451;28;20426;-55
2022/05/31 05:06:00;;;;;;;;;;;;;;;25.01;55.05;98414.75;2085630;28;19935;-57
2022/05/31 05:07:01;;;;;;;;;;;;;;;25.00;55.39;98424.81;2079807;28;20051;-53
2022/05/31 05:08:02;;;;;;;;;;;;;;;24.99;55.16;98423.16;2084361;28;19967;-56
2022/05/31 05:09:04;;;;;;;;;;;;;;;25.00;55.39;98422.09;2084097;28;19937;-57
2022/05/31 05:10:05;;;;;;;;;;;;;;;25.00;55.24;98424.00;2079950;28;19937;-56
2022/05/31 05:11:10;;;;;;;;;;;;;;;25.00;55.03;98422.09;2079632;28;19936;-54
2022/05/31 05:12:10;;;;;;;;;;;;;;;25.00;55.22;98424.00;2080361;28;19932;-55
2022/05/31 05:13:12;;;;;;;;;;;;;;;24.99;55.16;98428.59;2088809;28;20264;-54
2022/05/31 05:14:12;;;;;;;;;;;;;;;24.98;55.15;98432.38;2083676;28;19929;-55
2022/05/31 05:15:14;;;;;;;;;;;;;;;24.99;55.28;98434.03;2086202;28;19943;-53
2022/05/31 05:16:15;;;;;;;;;;;;;;;24.98;55.44;98433.19;2088795;28;19936;-55
2022/05/31 05:17:17;;;;;;;;;;;;;;;24.98;55.22;98440.50;2085265;28;19929;-52
2022/05/31 05:18:17;;;;;;;;;;;;;;;24.99;55.35;98439.44;2083899;28;20573;-53
2022/05/31 05:19:19;;;;;;;;;;;;;;;24.97;55.44;98447.81;2087571;28;19935;-56
2022/05/31 05:20:19;;;;;;;;;;;;;;;24.97;55.28;98447.00;2086300;28;19960;-53
2022/05/31 05:21:21;;;;;;;;;;;;;;;24.97;55.60;98452.44;2084042;28;19971;-53
2022/05/31 05:22:22;;;;;;;;;;;;;;;24.97;55.34;98444.31;2085397;28;19928;-54
2022/05/31 05:23:23;;;;;;;;;;;;;;;24.97;55.37;98453.25;2083599;28;19931;-54
2022/05/31 05:24:24;;;;;;;;;;;;;;;24.97;55.56;98447.00;2084627;28;19925;-55
2022/05/31 05:25:25;;;;;;;;;;;;;;;24.97;55.28;98457.88;2088312;28;19980;-55